Azalea Park, Florida
Current Conditions -  °F | °C
As of 1:53 AM on Thursday 23 Oct 2014 (Local Time) from KORL Reporting Station
Clear Clear  
Wind Chill: 67°   Ceiling: Unl
Heat Index: 67°   Visibility: 10mi
Dew Point: 57°   Wind: 5mph
Humidity: 70%   Direction: 20°NNE
Pressure: 29.99"   Gusts: NA
Location:  28.5525°N, 81.3003°W
Report Text: KORL 230553Z AUTO 02004KT 10SM CLR 19/14 A2999 RMK AO2 SLP159 T01940139 10222 20194 56006
Loading
Personal Weather Stations






























Interactive Weather Map
Tropical Storm Tracking
New forecast layout! Learn more

10-Day Weather Forecast

Advertisements
Track Severe Weather on mobile